Time;durP1;ratioP1;P1;durP2;ratioP2;P2;SDS_P1;SDS_P2;PMS_P1;PMS_P2;Temp;Humidity;BMP_temperature;BMP_pressure;BME280_temperature;BME280_humidity;BME280_pressure;Samples;Min_cycle;Max_cycle;Signal;HPM_P1;HPM_P2
2021/01/23 00:01:10;;;;;;;19.27;15.70;;;;;;;;;;5110282;28;20033;-60
2021/01/23 00:03:35;;;;;;;16.40;14.15;;;;;;;;;;5110151;28;20081;-60
2021/01/23 00:06:01;;;;;;;18.30;15.18;;;;;;;;;;5109270;28;20036;-59
2021/01/23 00:08:26;;;;;;;16.65;14.75;;;;;;;;;;5109790;28;20039;-59
2021/01/23 00:10:52;;;;;;;15.60;13.85;;;;;;;;;;5109652;28;20020;-60
2021/01/23 00:13:17;;;;;;;16.33;13.95;;;;;;;;;;5109375;28;20038;-59
2021/01/23 00:15:43;;;;;;;16.33;14.02;;;;;;;;;;5109373;28;20019;-60
2021/01/23 00:18:08;;;;;;;15.00;12.70;;;;;;;;;;5110584;28;20453;-59
2021/01/23 00:20:34;;;;;;;17.35;12.25;;;;;;;;;;5108408;28;20031;-59
2021/01/23 00:22:59;;;;;;;17.75;13.85;;;;;;;;;;5110688;28;20031;-59
2021/01/23 00:25:25;;;;;;;14.73;12.80;;;;;;;;;;5105793;27;20036;-59
2021/01/23 00:27:50;;;;;;;14.35;11.85;;;;;;;;;;5108745;27;20467;-59
2021/01/23 00:30:16;;;;;;;18.15;11.43;;;;;;;;;;5111819;27;20118;-58
2021/01/23 00:32:41;;;;;;;13.55;12.18;;;;;;;;;;5111444;27;20027;-59
2021/01/23 00:35:07;;;;;;;17.52;12.57;;;;;;;;;;5109383;27;20039;-59
2021/01/23 00:37:33;;;;;;;13.98;11.43;;;;;;;;;;5110579;27;20089;-59
2021/01/23 00:39:59;;;;;;;14.73;12.63;;;;;;;;;;5111276;27;20027;-59
2021/01/23 00:42:24;;;;;;;14.73;12.43;;;;;;;;;;5111224;27;20028;-59
2021/01/23 00:44:50;;;;;;;17.73;12.68;;;;;;;;;;5110161;27;20580;-58
2021/01/23 00:47:15;;;;;;;15.18;12.57;;;;;;;;;;5112047;27;20043;-59
2021/01/23 00:49:41;;;;;;;14.27;11.88;;;;;;;;;;5110434;27;20542;-58
2021/01/23 00:52:06;;;;;;;15.57;11.90;;;;;;;;;;5108904;27;20047;-59
2021/01/23 00:54:31;;;;;;;14.82;12.50;;;;;;;;;;5109981;27;20027;-59
2021/01/23 00:56:57;;;;;;;17.17;13.23;;;;;;;;;;5109177;27;20131;-60
2021/01/23 00:59:22;;;;;;;18.40;13.75;;;;;;;;;;5108107;28;20036;-59
2021/01/23 01:01:47;;;;;;;14.65;13.02;;;;;;;;;;5107964;28;20385;-59
2021/01/23 01:04:13;;;;;;;15.80;13.82;;;;;;;;;;5108858;28;20452;-59
2021/01/23 01:06:38;;;;;;;15.15;13.27;;;;;;;;;;5109925;28;20023;-59
2021/01/23 01:09:04;;;;;;;16.73;13.68;;;;;;;;;;5109337;28;20031;-59
2021/01/23 01:11:30;;;;;;;19.88;14.77;;;;;;;;;;5097820;28;20035;-59
2021/01/23 01:13:55;;;;;;;16.63;13.63;;;;;;;;;;5099972;28;20034;-59
2021/01/23 01:16:21;;;;;;;15.93;14.23;;;;;;;;;;5104616;28;20039;-59
2021/01/23 01:18:46;;;;;;;19.60;14.90;;;;;;;;;;5107784;28;20110;-59
2021/01/23 01:21:12;;;;;;;17.00;15.07;;;;;;;;;;5102053;28;20035;-59
2021/01/23 01:23:38;;;;;;;18.55;14.75;;;;;;;;;;5106121;28;20418;-59
2021/01/23 01:26:03;;;;;;;19.35;16.27;;;;;;;;;;5107842;28;20039;-59
2021/01/23 01:28:29;;;;;;;17.85;14.95;;;;;;;;;;5106326;28;20049;-59
2021/01/23 01:30:54;;;;;;;21.73;17.05;;;;;;;;;;5104717;28;20049;-59
2021/01/23 01:33:19;;;;;;;17.60;15.32;;;;;;;;;;5102686;28;20045;-59
2021/01/23 01:35:45;;;;;;;21.75;14.82;;;;;;;;;;5107060;28;20084;-59
2021/01/23 01:38:10;;;;;;;15.90;13.85;;;;;;;;;;5106320;28;20122;-59
2021/01/23 01:40:35;;;;;;;16.88;13.73;;;;;;;;;;5107358;28;20035;-59
2021/01/23 01:43:01;;;;;;;16.13;14.40;;;;;;;;;;5107217;28;20472;-60
2021/01/23 01:45:26;;;;;;;16.70;13.63;;;;;;;;;;5106506;28;20053;-59
2021/01/23 01:47:52;;;;;;;16.95;14.45;;;;;;;;;;5107005;28;20621;-59
2021/01/23 01:50:17;;;;;;;16.48;13.80;;;;;;;;;;5106942;28;20031;-59
2021/01/23 01:52:44;;;;;;;18.00;14.05;;;;;;;;;;5106794;28;20875;-59
2021/01/23 01:55:11;;;;;;;16.13;13.05;;;;;;;;;;5107210;28;20036;-59
2021/01/23 01:57:36;;;;;;;20.75;13.70;;;;;;;;;;5105110;28;20048;-59
2021/01/23 02:00:04;;;;;;;16.00;12.40;;;;;;;;;;5105251;28;20791;-59
2021/01/23 02:02:32;;;;;;;15.43;11.90;;;;;;;;;;5103132;28;20426;-59
2021/01/23 02:05:12;;;;;;;19.13;12.98;;;;;;;;;;5106411;28;20035;-59
2021/01/23 02:07:47;;;;;;;14.25;12.75;;;;;;;;;;5105675;28;20039;-59
2021/01/23 02:10:33;;;;;;;13.93;12.13;;;;;;;;;;5105289;28;20131;-59
2021/01/23 02:13:14;;;;;;;18.23;13.07;;;;;;;;;;5105511;28;20043;-59
2021/01/23 02:15:46;;;;;;;14.15;12.65;;;;;;;;;;5103227;28;20054;-59
2021/01/23 02:18:13;;;;;;;21.52;13.52;;;;;;;;;;5106634;28;20095;-59
2021/01/23 02:20:57;;;;;;;15.82;12.38;;;;;;;;;;5106821;28;20035;-59
2021/01/23 02:23:32;;;;;;;14.15;11.13;;;;;;;;;;5102349;28;20097;-59
2021/01/23 02:26:10;;;;;;;17.27;11.98;;;;;;;;;;5103981;28;20119;-59
2021/01/23 02:28:59;;;;;;;17.20;12.15;;;;;;;;;;5103800;28;20092;-59
2021/01/23 02:31:27;;;;;;;13.85;10.55;;;;;;;;;;5104947;28;20039;-59
2021/01/23 02:33:53;;;;;;;12.45;10.57;;;;;;;;;;5106367;28;20046;-59
2021/01/23 02:36:23;;;;;;;16.45;11.55;;;;;;;;;;5110379;28;20032;-59
2021/01/23 02:38:50;;;;;;;11.77;9.85;;;;;;;;;;5108496;28;20046;-59
2021/01/23 02:41:17;;;;;;;12.93;10.32;;;;;;;;;;5109024;28;20472;-59
2021/01/23 02:43:44;;;;;;;12.70;10.52;;;;;;;;;;5109384;28;20040;-59
2021/01/23 02:46:10;;;;;;;12.73;8.40;;;;;;;;;;5110175;28;20043;-59
2021/01/23 02:48:39;;;;;;;12.48;8.77;;;;;;;;;;5110616;28;20081;-59
2021/01/23 02:51:11;;;;;;;13.30;8.90;;;;;;;;;;5110515;28;20136;-59
2021/01/23 02:53:38;;;;;;;10.05;8.35;;;;;;;;;;5109038;28;20036;-59
2021/01/23 02:56:09;;;;;;;11.77;9.80;;;;;;;;;;5110358;28;20088;-59
2021/01/23 02:58:35;;;;;;;12.90;9.57;;;;;;;;;;5109698;28;20051;-59
2021/01/23 03:01:04;;;;;;;13.85;8.93;;;;;;;;;;5108957;28;20391;-59
2021/01/23 03:03:32;;;;;;;12.60;8.63;;;;;;;;;;5109887;28;20062;-59
2021/01/23 03:06:01;;;;;;;12.18;8.65;;;;;;;;;;5109540;28;20050;-59
2021/01/23 03:08:27;;;;;;;11.80;9.10;;;;;;;;;;5108588;28;20039;-59
2021/01/23 03:10:52;;;;;;;10.63;9.07;;;;;;;;;;5109457;28;20085;-59
2021/01/23 03:13:18;;;;;;;11.98;9.07;;;;;;;;;;5108235;28;20097;-59
2021/01/23 03:15:43;;;;;;;11.55;8.93;;;;;;;;;;5109473;28;20046;-59
2021/01/23 03:18:10;;;;;;;15.18;8.27;;;;;;;;;;5107959;28;20027;-59
2021/01/23 03:20:36;;;;;;;11.07;9.27;;;;;;;;;;5109852;28;20044;-59
2021/01/23 03:23:02;;;;;;;10.27;8.57;;;;;;;;;;5108299;28;20063;-59
2021/01/23 03:25:29;;;;;;;11.27;7.57;;;;;;;;;;5105442;28;20988;-59
2021/01/23 03:27:55;;;;;;;9.73;6.82;;;;;;;;;;5108040;28;20027;-59
2021/01/23 03:30:21;;;;;;;9.88;7.45;;;;;;;;;;5108954;28;20126;-59
2021/01/23 03:32:48;;;;;;;8.50;7.32;;;;;;;;;;5108760;28;20051;-59
2021/01/23 03:35:14;;;;;;;16.83;8.02;;;;;;;;;;5108407;28;20449;-60
2021/01/23 03:37:40;;;;;;;9.43;7.70;;;;;;;;;;5103092;28;20055;-59
2021/01/23 03:40:06;;;;;;;13.50;7.80;;;;;;;;;;5108651;28;20040;-60
2021/01/23 03:42:33;;;;;;;11.98;7.95;;;;;;;;;;5107874;28;20124;-59
2021/01/23 03:44:58;;;;;;;10.98;8.25;;;;;;;;;;5109845;28;20062;-59
2021/01/23 03:47:24;;;;;;;9.20;7.22;;;;;;;;;;5107533;28;20360;-60
2021/01/23 03:49:49;;;;;;;13.27;7.90;;;;;;;;;;5108759;28;20670;-59
2021/01/23 03:52:15;;;;;;;11.13;7.82;;;;;;;;;;5109154;28;20469;-60
2021/01/23 03:54:41;;;;;;;10.15;7.22;;;;;;;;;;5108512;28;20019;-59
2021/01/23 03:57:07;;;;;;;11.10;7.53;;;;;;;;;;5110111;28;20389;-60
2021/01/23 03:59:33;;;;;;;12.02;8.65;;;;;;;;;;5109895;28;20040;-59
2021/01/23 04:01:58;;;;;;;10.15;7.03;;;;;;;;;;5110861;28;20555;-59
2021/01/23 04:04:23;;;;;;;12.48;7.45;;;;;;;;;;5110030;28;20116;-59
2021/01/23 04:06:49;;;;;;;10.20;6.82;;;;;;;;;;5108930;28;20035;-60
2021/01/23 04:09:14;;;;;;;9.75;7.57;;;;;;;;;;5111482;28;20031;-60
2021/01/23 04:11:39;;;;;;;8.48;6.95;;;;;;;;;;5111601;28;20028;-60
2021/01/23 04:14:05;;;;;;;9.20;6.88;;;;;;;;;;5110983;28;20115;-59
2021/01/23 04:16:30;;;;;;;8.40;6.68;;;;;;;;;;5111600;28;20038;-60
2021/01/23 04:18:56;;;;;;;9.43;7.10;;;;;;;;;;5110797;28;20031;-60
2021/01/23 04:21:21;;;;;;;7.75;6.32;;;;;;;;;;5111449;28;20027;-59
2021/01/23 04:23:46;;;;;;;11.18;7.05;;;;;;;;;;5110487;28;20036;-59
2021/01/23 04:26:12;;;;;;;9.95;7.05;;;;;;;;;;5111323;28;20030;-60
2021/01/23 04:28:37;;;;;;;8.52;6.75;;;;;;;;;;5111461;28;20031;-60
2021/01/23 04:31:03;;;;;;;8.55;6.43;;;;;;;;;;5111251;28;20067;-59
2021/01/23 04:33:28;;;;;;;7.47;6.28;;;;;;;;;;5110698;28;20471;-59
2021/01/23 04:35:54;;;;;;;8.52;6.55;;;;;;;;;;5110005;28;20092;-59
2021/01/23 04:38:20;;;;;;;9.38;6.65;;;;;;;;;;5110102;28;20496;-60
2021/01/23 04:40:45;;;;;;;9.35;6.80;;;;;;;;;;5111384;28;20100;-60
2021/01/23 04:43:11;;;;;;;9.52;6.50;;;;;;;;;;5108855;28;20035;-59
2021/01/23 04:45:36;;;;;;;9.20;6.68;;;;;;;;;;5111252;28;20051;-60
2021/01/23 04:48:02;;;;;;;8.88;6.22;;;;;;;;;;5111419;28;20032;-59
2021/01/23 04:50:27;;;;;;;9.50;6.90;;;;;;;;;;5110120;28;20035;-59
2021/01/23 04:52:53;;;;;;;8.25;6.70;;;;;;;;;;5110871;28;20032;-59
2021/01/23 04:55:18;;;;;;;11.02;8.10;;;;;;;;;;5110480;28;20027;-59
2021/01/23 04:57:43;;;;;;;10.40;7.25;;;;;;;;;;5110301;28;20118;-60
2021/01/23 05:00:11;;;;;;;11.00;7.53;;;;;;;;;;5109468;28;20503;-60
2021/01/23 05:02:36;;;;;;;9.40;7.63;;;;;;;;;;5109495;28;20040;-60
2021/01/23 05:05:03;;;;;;;8.32;7.00;;;;;;;;;;5110920;28;20033;-60
2021/01/23 05:07:46;;;;;;;9.48;7.55;;;;;;;;;;5109549;28;20032;-60
2021/01/23 05:10:16;;;;;;;11.43;7.53;;;;;;;;;;5110641;28;20031;-60
2021/01/23 05:12:46;;;;;;;10.23;8.07;;;;;;;;;;5108648;28;20051;-59
2021/01/23 05:15:33;;;;;;;15.80;7.97;;;;;;;;;;5110444;28;20353;-59
2021/01/23 05:18:07;;;;;;;9.95;8.32;;;;;;;;;;5108582;28;20456;-60
2021/01/23 05:20:51;;;;;;;14.68;9.02;;;;;;;;;;5110304;28;20041;-60
2021/01/23 05:23:27;;;;;;;10.85;8.50;;;;;;;;;;5110307;28;20085;-59
2021/01/23 05:25:54;;;;;;;13.40;8.88;;;;;;;;;;5107780;28;20472;-59
2021/01/23 05:28:31;;;;;;;11.73;9.57;;;;;;;;;;5110331;28;20032;-59
2021/01/23 05:30:58;;;;;;;11.80;9.90;;;;;;;;;;5109049;28;20040;-59
2021/01/23 05:33:31;;;;;;;13.77;10.15;;;;;;;;;;5109900;28;20155;-60
2021/01/23 05:35:58;;;;;;;13.70;11.40;;;;;;;;;;5107484;28;20486;-59
2021/01/23 05:38:24;;;;;;;14.27;11.30;;;;;;;;;;5109560;28;20458;-60
2021/01/23 05:40:52;;;;;;;14.95;10.57;;;;;;;;;;5110474;28;20042;-60
2021/01/23 05:43:37;;;;;;;15.02;11.02;;;;;;;;;;5107521;28;20108;-59
2021/01/23 05:46:25;;;;;;;15.90;11.23;;;;;;;;;;5109794;28;20032;-60
2021/01/23 05:48:51;;;;;;;14.98;11.63;;;;;;;;;;5106578;28;20097;-59
2021/01/23 05:51:17;;;;;;;14.10;11.27;;;;;;;;;;5109434;28;20047;-59
2021/01/23 05:53:43;;;;;;;13.40;11.40;;;;;;;;;;5108991;28;20495;-59
2021/01/23 05:56:09;;;;;;;15.45;11.88;;;;;;;;;;5109884;28;20036;-59
2021/01/23 05:58:36;;;;;;;13.35;10.77;;;;;;;;;;5108472;28;20034;-58
2021/01/23 06:01:07;;;;;;;13.45;11.43;;;;;;;;;;5109405;28;20584;-60
2021/01/23 06:03:36;;;;;;;15.77;11.98;;;;;;;;;;5110022;28;20365;-59
2021/01/23 06:06:01;;;;;;;15.48;12.35;;;;;;;;;;5109608;28;20050;-59
2021/01/23 06:08:44;;;;;;;16.40;11.02;;;;;;;;;;5108864;28;20032;-60
2021/01/23 06:11:19;;;;;;;14.50;11.70;;;;;;;;;;5107650;28;20041;-59
2021/01/23 06:13:56;;;;;;;14.30;10.43;;;;;;;;;;5109148;28;20035;-59
2021/01/23 06:16:33;;;;;;;16.60;11.35;;;;;;;;;;5109099;28;20061;-60
2021/01/23 06:18:59;;;;;;;14.02;10.52;;;;;;;;;;5105982;28;20074;-59
2021/01/23 06:21:42;;;;;;;14.52;10.85;;;;;;;;;;5109505;28;20062;-59
2021/01/23 06:24:09;;;;;;;14.23;10.40;;;;;;;;;;5108615;28;20042;-60
2021/01/23 06:26:54;;;;;;;12.70;10.43;;;;;;;;;;5107675;28;20027;-59
2021/01/23 06:29:32;;;;;;;16.95;11.35;;;;;;;;;;5104429;28;20054;-59
2021/01/23 06:32:18;;;;;;;10.98;9.38;;;;;;;;;;5107496;28;20104;-59
2021/01/23 06:34:50;;;;;;;11.95;9.95;;;;;;;;;;5107579;28;20420;-59
2021/01/23 06:37:37;;;;;;;14.00;9.82;;;;;;;;;;5107996;28;20472;-59
2021/01/23 06:40:10;;;;;;;12.00;9.93;;;;;;;;;;5109092;28;20364;-59
2021/01/23 06:42:38;;;;;;;13.05;9.85;;;;;;;;;;5108141;28;20661;-59
2021/01/23 06:45:13;;;;;;;13.18;9.57;;;;;;;;;;5108970;28;20351;-59
2021/01/23 06:47:43;;;;;;;12.70;9.80;;;;;;;;;;5109112;28;20063;-59
2021/01/23 06:50:09;;;;;;;13.23;10.43;;;;;;;;;;5106499;28;20074;-59
2021/01/23 06:52:49;;;;;;;12.93;10.35;;;;;;;;;;5107145;28;20020;-59
2021/01/23 06:55:15;;;;;;;12.90;9.57;;;;;;;;;;5105889;28;20058;-59
2021/01/23 06:57:46;;;;;;;11.23;9.38;;;;;;;;;;5107597;28;20111;-59
2021/01/23 07:00:13;;;;;;;13.55;9.68;;;;;;;;;;5105934;28;20035;-59
2021/01/23 07:02:39;;;;;;;12.98;10.02;;;;;;;;;;5107809;28;20481;-59
2021/01/23 07:05:08;;;;;;;16.52;10.45;;;;;;;;;;5109173;28;20031;-59
2021/01/23 07:07:38;;;;;;;12.93;8.95;;;;;;;;;;5106635;28;20078;-59
2021/01/23 07:10:06;;;;;;;16.30;12.13;;;;;;;;;;5105888;28;20032;-60
2021/01/23 07:12:38;;;;;;;17.48;13.07;;;;;;;;;;5108591;28;20369;-59
2021/01/23 07:15:08;;;;;;;16.92;10.57;;;;;;;;;;5109171;28;20711;-59
2021/01/23 07:17:44;;;;;;;13.82;10.43;;;;;;;;;;5107764;28;20039;-58
2021/01/23 07:20:11;;;;;;;31.00;24.58;;;;;;;;;;5108656;28;20054;-59
2021/01/23 07:22:38;;;;;;;16.10;12.38;;;;;;;;;;5111655;28;20027;-59
2021/01/23 07:25:05;;;;;;;13.90;10.43;;;;;;;;;;5112293;28;20039;-58
2021/01/23 07:27:31;;;;;;;14.60;11.35;;;;;;;;;;5111125;28;20035;-59
2021/01/23 07:29:56;;;;;;;15.70;10.73;;;;;;;;;;5110561;28;20051;-59
2021/01/23 07:32:22;;;;;;;13.63;11.80;;;;;;;;;;5111813;28;20039;-59
2021/01/23 07:34:59;;;;;;;16.10;11.77;;;;;;;;;;5110577;28;20024;-59
2021/01/23 07:37:43;;;;;;;16.02;10.80;;;;;;;;;;5111604;27;20457;-59
2021/01/23 07:40:10;;;;;;;13.02;10.13;;;;;;;;;;5111896;28;20055;-59
2021/01/23 07:42:37;;;;;;;12.52;9.82;;;;;;;;;;5111160;28;20078;-60
2021/01/23 07:45:07;;;;;;;15.45;10.88;;;;;;;;;;5112318;28;20036;-60
2021/01/23 07:47:34;;;;;;;13.70;11.52;;;;;;;;;;5110872;28;20038;-60
2021/01/23 07:50:06;;;;;;;16.70;10.68;;;;;;;;;;5107096;27;20047;-60
2021/01/23 07:52:31;;;;;;;16.40;13.05;;;;;;;;;;5109785;28;20031;-60
2021/01/23 07:54:57;;;;;;;13.43;11.68;;;;;;;;;;5108788;28;20050;-60
2021/01/23 07:57:22;;;;;;;16.15;12.40;;;;;;;;;;5109182;28;20139;-60
2021/01/23 07:59:50;;;;;;;16.42;12.13;;;;;;;;;;5108713;28;20043;-60
2021/01/23 08:02:16;;;;;;;20.00;13.20;;;;;;;;;;5111022;28;20039;-60
2021/01/23 08:04:47;;;;;;;15.95;13.07;;;;;;;;;;5109948;28;20067;-60
2021/01/23 08:07:31;;;;;;;17.92;14.18;;;;;;;;;;5111761;28;20042;-59
2021/01/23 08:10:20;;;;;;;24.88;15.20;;;;;;;;;;5110474;28;20085;-59
2021/01/23 08:12:59;;;;;;;17.35;13.73;;;;;;;;;;5111697;28;20032;-60
2021/01/23 08:15:26;;;;;;;17.88;14.10;;;;;;;;;;5111115;28;20410;-60
2021/01/23 08:17:51;;;;;;;15.25;12.93;;;;;;;;;;5111445;28;20024;-60
2021/01/23 08:20:28;;;;;;;17.10;13.05;;;;;;;;;;5111912;28;20101;-60
2021/01/23 08:23:07;;;;;;;15.20;12.70;;;;;;;;;;5109807;28;20035;-60
2021/01/23 08:25:35;;;;;;;18.55;13.43;;;;;;;;;;5111009;28;20060;-60
2021/01/23 08:28:01;;;;;;;17.98;13.23;;;;;;;;;;5109586;28;20084;-60
2021/01/23 08:30:27;;;;;;;17.17;13.18;;;;;;;;;;5110825;28;20119;-60
2021/01/23 08:32:53;;;;;;;18.40;11.82;;;;;;;;;;5110047;28;20400;-61
2021/01/23 08:35:20;;;;;;;14.07;12.02;;;;;;;;;;5109911;28;20110;-60
2021/01/23 08:37:46;;;;;;;14.50;11.27;;;;;;;;;;5111870;28;20051;-60
2021/01/23 08:40:12;;;;;;;13.40;11.05;;;;;;;;;;5111131;28;20031;-60
2021/01/23 08:42:37;;;;;;;13.57;11.20;;;;;;;;;;5111299;28;20032;-60
2021/01/23 08:45:05;;;;;;;20.20;11.93;;;;;;;;;;5110251;28;20063;-60
2021/01/23 08:47:30;;;;;;;16.20;11.48;;;;;;;;;;5110337;28;20482;-60
2021/01/23 08:49:55;;;;;;;14.10;11.13;;;;;;;;;;5111489;28;20038;-60
2021/01/23 08:52:21;;;;;;;13.63;11.25;;;;;;;;;;5108277;28;20110;-60
2021/01/23 08:54:46;;;;;;;15.00;12.00;;;;;;;;;;5111174;28;20038;-60
2021/01/23 08:57:11;;;;;;;14.73;10.73;;;;;;;;;;5110994;28;20573;-59
2021/01/23 08:59:37;;;;;;;16.60;10.55;;;;;;;;;;5110104;28;20393;-60
2021/01/23 09:02:02;;;;;;;14.95;11.50;;;;;;;;;;5111180;28;20039;-60
2021/01/23 09:04:27;;;;;;;13.77;10.95;;;;;;;;;;5110545;28;20478;-60
2021/01/23 09:06:53;;;;;;;14.93;10.82;;;;;;;;;;5109984;28;20049;-60
2021/01/23 09:09:18;;;;;;;14.75;11.32;;;;;;;;;;5110943;28;20031;-60
2021/01/23 09:11:43;;;;;;;13.88;10.80;;;;;;;;;;5111157;28;20071;-60
2021/01/23 09:14:09;;;;;;;14.73;11.55;;;;;;;;;;5110615;28;20478;-60
2021/01/23 09:16:34;;;;;;;12.05;9.95;;;;;;;;;;5109593;28;20705;-60
2021/01/23 09:19:00;;;;;;;16.10;10.73;;;;;;;;;;5110809;28;20036;-60
2021/01/23 09:21:25;;;;;;;14.30;10.00;;;;;;;;;;5109391;28;20031;-60
2021/01/23 09:23:51;;;;;;;13.48;10.20;;;;;;;;;;5109644;28;20028;-59
2021/01/23 09:26:17;;;;;;;13.77;10.13;;;;;;;;;;5110239;28;20457;-60
2021/01/23 09:28:42;;;;;;;14.32;11.07;;;;;;;;;;5109308;28;20035;-59
2021/01/23 09:31:08;;;;;;;16.48;11.43;;;;;;;;;;5107885;28;20483;-59
2021/01/23 09:33:33;;;;;;;15.85;11.50;;;;;;;;;;5107457;28;20035;-59
2021/01/23 09:36:00;;;;;;;14.30;11.00;;;;;;;;;;5109256;28;20043;-60
2021/01/23 09:38:25;;;;;;;12.43;10.10;;;;;;;;;;5109832;28;20032;-59
2021/01/23 09:40:51;;;;;;;13.68;11.52;;;;;;;;;;5109525;28;20061;-60
2021/01/23 09:43:16;;;;;;;13.55;10.45;;;;;;;;;;5107254;28;20459;-59
2021/01/23 09:45:42;;;;;;;15.75;10.82;;;;;;;;;;5106245;28;20024;-60
2021/01/23 09:48:07;;;;;;;15.27;10.75;;;;;;;;;;5108802;28;20039;-59
2021/01/23 09:50:33;;;;;;;12.65;10.38;;;;;;;;;;5107663;28;20038;-60
2021/01/23 09:52:58;;;;;;;14.18;11.23;;;;;;;;;;5105781;28;20035;-60
2021/01/23 09:55:24;;;;;;;13.95;10.68;;;;;;;;;;5107003;28;20205;-60
2021/01/23 09:57:49;;;;;;;15.48;10.43;;;;;;;;;;5110154;28;20130;-59
2021/01/23 10:00:15;;;;;;;12.15;10.85;;;;;;;;;;5099729;28;20571;-60
2021/01/23 10:02:41;;;;;;;13.48;10.85;;;;;;;;;;5101930;28;20041;-59
2021/01/23 10:05:08;;;;;;;18.38;11.35;;;;;;;;;;5106458;28;20110;-60
2021/01/23 10:07:34;;;;;;;19.52;11.18;;;;;;;;;;5105989;28;20085;-60
2021/01/23 10:09:59;;;;;;;14.05;11.23;;;;;;;;;;5106086;28;20043;-60
2021/01/23 10:12:28;;;;;;;17.90;11.15;;;;;;;;;;5106967;28;20038;-59
2021/01/23 10:14:54;;;;;;;18.67;11.98;;;;;;;;;;5105192;28;20061;-59
2021/01/23 10:17:19;;;;;;;15.05;11.65;;;;;;;;;;5104316;28;20043;-59
2021/01/23 10:19:44;;;;;;;16.98;10.65;;;;;;;;;;5106815;28;20031;-60
2021/01/23 10:22:10;;;;;;;15.20;11.63;;;;;;;;;;5106802;28;20516;-60
2021/01/23 10:24:36;;;;;;;18.33;11.80;;;;;;;;;;5104384;28;20139;-60
2021/01/23 10:27:01;;;;;;;14.65;12.02;;;;;;;;;;5106670;28;20055;-59
2021/01/23 10:29:26;;;;;;;14.18;11.55;;;;;;;;;;5105282;28;20478;-59
2021/01/23 10:31:52;;;;;;;15.30;11.15;;;;;;;;;;5104623;28;20102;-60
2021/01/23 10:34:17;;;;;;;12.80;11.50;;;;;;;;;;5105920;28;20123;-59
2021/01/23 10:36:42;;;;;;;15.85;12.02;;;;;;;;;;5106883;28;20043;-59
2021/01/23 10:39:08;;;;;;;13.80;12.35;;;;;;;;;;5106473;28;20042;-59
2021/01/23 10:41:33;;;;;;;15.02;12.63;;;;;;;;;;5104563;28;20066;-60
2021/01/23 10:43:59;;;;;;;15.20;11.65;;;;;;;;;;5106655;28;20154;-60
2021/01/23 10:46:24;;;;;;;22.67;12.70;;;;;;;;;;5106805;28;20144;-60
2021/01/23 10:48:49;;;;;;;13.15;11.40;;;;;;;;;;5107098;28;20031;-60
2021/01/23 10:51:15;;;;;;;15.02;11.77;;;;;;;;;;5105772;28;20044;-59
2021/01/23 10:53:40;;;;;;;14.65;11.13;;;;;;;;;;5105418;28;20042;-60
2021/01/23 10:56:06;;;;;;;16.35;11.57;;;;;;;;;;5109233;28;20035;-60
2021/01/23 10:58:32;;;;;;;12.77;11.20;;;;;;;;;;5110731;28;20738;-60
2021/01/23 11:00:58;;;;;;;13.98;10.50;;;;;;;;;;5109478;28;20436;-60
2021/01/23 11:03:23;;;;;;;11.50;9.90;;;;;;;;;;5106858;28;20049;-59
2021/01/23 11:05:51;;;;;;;12.50;8.98;;;;;;;;;;5110492;28;20099;-59
2021/01/23 11:08:16;;;;;;;13.07;8.63;;;;;;;;;;5109168;28;20036;-59
2021/01/23 11:10:41;;;;;;;11.68;9.73;;;;;;;;;;5110422;28;20092;-59
2021/01/23 11:13:07;;;;;;;12.25;9.20;;;;;;;;;;5110143;28;20039;-59
2021/01/23 11:15:32;;;;;;;17.10;9.10;;;;;;;;;;5108874;28;20028;-59
2021/01/23 11:17:57;;;;;;;10.40;8.95;;;;;;;;;;5109435;28;20040;-59
2021/01/23 11:20:23;;;;;;;12.93;9.82;;;;;;;;;;5110245;28;20427;-59
2021/01/23 11:22:49;;;;;;;10.98;8.30;;;;;;;;;;5110036;28;20038;-59
2021/01/23 11:25:15;;;;;;;9.45;8.05;;;;;;;;;;5109122;28;20070;-59
2021/01/23 11:27:41;;;;;;;12.15;9.95;;;;;;;;;;5110271;28;20059;-59
2021/01/23 11:30:09;;;;;;;11.98;8.43;;;;;;;;;;5110248;28;20039;-59
2021/01/23 11:32:34;;;;;;;14.75;8.70;;;;;;;;;;5108698;28;20115;-59
2021/01/23 11:35:00;;;;;;;11.00;7.88;;;;;;;;;;5108476;28;20106;-59
2021/01/23 11:37:25;;;;;;;9.07;7.45;;;;;;;;;;5109264;28;20104;-58
2021/01/23 11:39:50;;;;;;;8.80;7.38;;;;;;;;;;5110345;28;20063;-58
2021/01/23 11:42:16;;;;;;;9.48;6.93;;;;;;;;;;5110199;28;20038;-59
2021/01/23 11:44:41;;;;;;;13.32;8.07;;;;;;;;;;5107984;28;20059;-60
2021/01/23 11:47:06;;;;;;;9.70;7.53;;;;;;;;;;5109899;28;20043;-60
2021/01/23 11:49:32;;;;;;;9.95;7.65;;;;;;;;;;5109766;28;20461;-59
2021/01/23 11:51:57;;;;;;;9.85;6.78;;;;;;;;;;5108590;28;20691;-59
2021/01/23 11:54:23;;;;;;;7.90;6.85;;;;;;;;;;5108500;28;20441;-59
2021/01/23 11:56:48;;;;;;;9.38;6.82;;;;;;;;;;5109053;28;20039;-61
2021/01/23 11:59:13;;;;;;;8.10;6.00;;;;;;;;;;5109155;28;20063;-60
2021/01/23 12:01:39;;;;;;;8.00;6.78;;;;;;;;;;5105783;28;20079;-60
2021/01/23 12:04:04;;;;;;;10.57;6.47;;;;;;;;;;5105983;28;20122;-61
2021/01/23 12:06:30;;;;;;;6.90;5.43;;;;;;;;;;5107149;28;20171;-59
2021/01/23 12:08:55;;;;;;;7.65;6.00;;;;;;;;;;5109548;28;20035;-59
2021/01/23 12:11:20;;;;;;;7.80;6.10;;;;;;;;;;5106957;28;20035;-61
2021/01/23 12:13:46;;;;;;;8.55;5.85;;;;;;;;;;5109653;28;20036;-61
2021/01/23 12:16:11;;;;;;;8.25;6.00;;;;;;;;;;5109012;28;20483;-61
2021/01/23 12:18:37;;;;;;;7.97;5.63;;;;;;;;;;5107782;28;20043;-60
2021/01/23 12:21:03;;;;;;;7.90;6.05;;;;;;;;;;5109003;28;20050;-60
2021/01/23 12:23:28;;;;;;;7.90;5.65;;;;;;;;;;5109047;28;20043;-61
2021/01/23 12:25:53;;;;;;;8.95;6.13;;;;;;;;;;5103027;28;20124;-60
2021/01/23 12:28:19;;;;;;;11.10;6.80;;;;;;;;;;5108333;28;20046;-61
2021/01/23 12:30:44;;;;;;;8.25;6.55;;;;;;;;;;5106661;28;20027;-60
2021/01/23 12:33:09;;;;;;;10.05;6.10;;;;;;;;;;5106492;28;20035;-60
2021/01/23 12:35:35;;;;;;;7.30;5.90;;;;;;;;;;5106962;28;20043;-59
2021/01/23 12:38:00;;;;;;;9.30;6.57;;;;;;;;;;5108095;28;20440;-60
2021/01/23 12:40:27;;;;;;;10.00;6.65;;;;;;;;;;5105032;28;20035;-60
2021/01/23 12:42:53;;;;;;;7.88;5.93;;;;;;;;;;5107961;28;20039;-60
2021/01/23 12:45:18;;;;;;;10.05;5.65;;;;;;;;;;5104728;28;20039;-58
2021/01/23 12:47:43;;;;;;;7.75;5.85;;;;;;;;;;5106519;28;20145;-59
2021/01/23 12:50:11;;;;;;;10.85;4.55;;;;;;;;;;5106124;28;20035;-60
2021/01/23 12:52:36;;;;;;;10.10;5.47;;;;;;;;;;5107625;28;20035;-60
2021/01/23 12:55:02;;;;;;;11.45;5.97;;;;;;;;;;5106740;28;21178;-61
2021/01/23 12:57:27;;;;;;;10.40;6.07;;;;;;;;;;5106988;27;20046;-60
2021/01/23 12:59:52;;;;;;;9.85;5.70;;;;;;;;;;5107248;28;20042;-60
2021/01/23 13:02:18;;;;;;;7.60;5.65;;;;;;;;;;5107252;28;20080;-60
2021/01/23 13:04:43;;;;;;;7.03;5.43;;;;;;;;;;5104494;28;20035;-59
2021/01/23 13:07:09;;;;;;;7.15;5.10;;;;;;;;;;5106025;28;20543;-59
2021/01/23 13:09:34;;;;;;;8.45;5.65;;;;;;;;;;5106758;28;20039;-61
2021/01/23 13:12:00;;;;;;;8.00;5.50;;;;;;;;;;5107237;28;20035;-61
2021/01/23 13:14:26;;;;;;;8.75;5.72;;;;;;;;;;5104489;28;20456;-61
2021/01/23 13:16:51;;;;;;;7.38;5.75;;;;;;;;;;5107577;28;20046;-61
2021/01/23 13:19:16;;;;;;;8.18;5.55;;;;;;;;;;5101799;28;20061;-61
2021/01/23 13:21:42;;;;;;;8.68;5.40;;;;;;;;;;5105533;28;20046;-61
2021/01/23 13:24:08;;;;;;;9.13;5.38;;;;;;;;;;5107112;28;20059;-60
2021/01/23 13:26:33;;;;;;;7.72;5.13;;;;;;;;;;5105870;28;20422;-60
2021/01/23 13:28:59;;;;;;;10.60;5.00;;;;;;;;;;5106861;28;20061;-60
2021/01/23 13:31:26;;;;;;;9.05;5.60;;;;;;;;;;5104822;28;20042;-60
2021/01/23 13:33:53;;;;;;;12.40;5.60;;;;;;;;;;5101835;28;20181;-59
2021/01/23 13:36:19;;;;;;;7.72;5.43;;;;;;;;;;5103524;28;20032;-60
2021/01/23 13:38:44;;;;;;;8.18;5.50;;;;;;;;;;5103570;28;20068;-60
2021/01/23 13:41:10;;;;;;;9.15;5.28;;;;;;;;;;5106571;28;20126;-60
2021/01/23 13:43:35;;;;;;;8.57;5.75;;;;;;;;;;5106077;28;20039;-60
2021/01/23 13:46:00;;;;;;;9.68;4.80;;;;;;;;;;5106222;28;20058;-61
2021/01/23 13:48:26;;;;;;;7.63;4.78;;;;;;;;;;5105169;28;20032;-60
2021/01/23 13:50:51;;;;;;;8.18;4.85;;;;;;;;;;5106884;28;20035;-60
2021/01/23 13:53:16;;;;;;;10.18;5.63;;;;;;;;;;5106634;28;20467;-60
2021/01/23 13:55:42;;;;;;;7.65;4.85;;;;;;;;;;5104639;28;20038;-61
2021/01/23 13:58:07;;;;;;;9.57;5.72;;;;;;;;;;5103923;28;20050;-59
2021/01/23 14:00:33;;;;;;;7.57;4.80;;;;;;;;;;5103205;28;20039;-59
2021/01/23 14:02:58;;;;;;;6.95;5.15;;;;;;;;;;5105396;28;20035;-59
2021/01/23 14:05:23;;;;;;;5.65;4.47;;;;;;;;;;5103225;28;20145;-59
2021/01/23 14:07:49;;;;;;;8.45;4.68;;;;;;;;;;5105881;28;20043;-59
2021/01/23 14:10:14;;;;;;;13.02;4.95;;;;;;;;;;5105254;28;20027;-59
2021/01/23 14:12:39;;;;;;;6.10;4.45;;;;;;;;;;5105443;28;20057;-60
2021/01/23 14:15:05;;;;;;;8.60;5.65;;;;;;;;;;5106151;28;20023;-59
2021/01/23 14:17:31;;;;;;;9.15;5.57;;;;;;;;;;5106134;28;20046;-60
2021/01/23 14:19:56;;;;;;;7.32;5.05;;;;;;;;;;5105830;28;20039;-59
2021/01/23 14:22:22;;;;;;;9.48;5.55;;;;;;;;;;5106658;28;20035;-61
2021/01/23 14:24:50;;;;;;;7.28;5.05;;;;;;;;;;5107029;28;20032;-59
2021/01/23 14:27:17;;;;;;;11.55;5.30;;;;;;;;;;5105081;28;20036;-59